Madbury, New Hampshire
Current Conditions -  °F | °C
As of 6:51 PM on Monday 20 Oct 2014 (Local Time) from KDAW Reporting Station
Overcast Overcast  
Wind Chill: 50°   Ceiling: 10000
Heat Index: 50°   Visibility: 10mi
Dew Point: 33°   Wind: 0mph
Humidity: 52%   Direction: NA
Pressure: 29.96"   Gusts: NA
Location:  43.17°N, 70.93°W
Report Text: KDAW 202251Z AUTO 00000KT 10SM BKN100 OVC120 10/01 A2996 RMK AO2 SLP144 T01000006
Loading
Personal Weather Stations






























Interactive Weather Map
Tropical Storm Tracking
New forecast layout! Learn more

10-Day Weather Forecast

Advertisements
Track Severe Weather on mobile